createdAt,value
2017-10-24T00:00:26.375Z,14.80
2017-10-24T00:02:54.825Z,14.80
2017-10-24T00:05:23.406Z,14.37
2017-10-24T00:07:51.850Z,13.87
2017-10-24T00:10:21.090Z,14.10
2017-10-24T00:12:49.528Z,14.63
2017-10-24T00:15:18.772Z,13.43
2017-10-24T00:17:47.219Z,14.30
2017-10-24T00:20:16.416Z,15.47
2017-10-24T00:22:45.750Z,14.83
2017-10-24T00:25:14.199Z,14.13
2017-10-24T00:27:43.431Z,11.83
2017-10-24T00:30:11.886Z,13.47
2017-10-24T00:32:40.349Z,13.90
2017-10-24T00:35:09.561Z,14.30
2017-10-24T00:37:38.790Z,14.03
2017-10-24T00:40:07.242Z,15.00
2017-10-24T00:42:36.477Z,14.17
2017-10-24T00:45:04.925Z,15.20
2017-10-24T00:47:34.252Z,14.90
2017-10-24T00:50:02.698Z,14.30
2017-10-24T00:52:31.901Z,14.30
2017-10-24T00:55:01.129Z,13.20
2017-10-24T00:57:29.622Z,14.97
2017-10-24T00:59:58.081Z,14.33
2017-10-24T01:02:26.518Z,16.00
2017-10-24T01:04:54.981Z,16.83
2017-10-24T01:07:23.425Z,17.30
2017-10-24T01:09:51.922Z,16.50
2017-10-24T01:12:20.405Z,17.33
2017-10-24T01:14:48.877Z,16.70
2017-10-24T01:17:17.313Z,16.47
2017-10-24T01:19:45.882Z,16.70
2017-10-24T01:22:14.328Z,16.03
2017-10-24T01:24:42.774Z,16.63
2017-10-24T01:27:12.001Z,18.47
2017-10-24T01:29:40.450Z,18.23
2017-10-24T01:32:09.681Z,18.00
2017-10-24T01:34:38.126Z,18.10
2017-10-24T01:37:06.589Z,16.43
2017-10-24T01:39:35.050Z,17.13
2017-10-24T01:42:03.632Z,15.77
2017-10-24T01:44:32.074Z,17.40
2017-10-24T01:47:01.307Z,16.67
2017-10-24T01:49:29.758Z,16.77
2017-10-24T01:51:59.009Z,15.60
2017-10-24T01:54:27.454Z,15.77
2017-10-24T01:56:55.888Z,16.70
2017-10-24T01:59:24.358Z,13.93
2017-10-24T02:01:52.815Z,15.80
2017-10-24T02:04:21.277Z,16.57
2017-10-24T02:06:49.712Z,16.70
2017-10-24T02:09:18.177Z,16.57
2017-10-24T02:11:46.649Z,14.83
2017-10-24T02:14:15.109Z,17.03
2017-10-24T02:16:43.610Z,14.50
2017-10-24T02:19:12.074Z,19.07
2017-10-24T02:21:40.519Z,17.37
2017-10-24T02:24:09.752Z,16.20
2017-10-24T02:26:38.198Z,17.60
2017-10-24T02:29:06.669Z,17.23
2017-10-24T02:31:35.111Z,16.10
2017-10-24T02:34:03.558Z,16.60
2017-10-24T02:36:32.790Z,18.23
2017-10-24T02:39:01.281Z,17.90
2017-10-24T02:41:29.785Z,17.13
2017-10-24T02:43:58.224Z,18.40
2017-10-24T02:46:26.681Z,22.50
2017-10-24T02:48:55.881Z,18.30
2017-10-24T02:51:25.109Z,19.10
2017-10-24T02:53:53.609Z,18.90
2017-10-24T02:56:22.101Z,18.80
2017-10-24T02:58:50.559Z,17.97
2017-10-24T03:01:19.007Z,17.40
2017-10-24T03:03:48.232Z,17.50
2017-10-24T03:06:16.677Z,20.73
2017-10-24T03:08:45.137Z,17.60
2017-10-24T03:11:13.589Z,19.50
2017-10-24T03:13:42.053Z,18.83
2017-10-24T03:16:10.498Z,19.57
2017-10-24T03:18:38.971Z,18.53
2017-10-24T03:21:07.421Z,19.80
2017-10-24T03:23:35.882Z,17.00
2017-10-24T03:26:04.316Z,17.57
2017-10-24T03:28:32.781Z,15.23
2017-10-24T03:31:01.231Z,17.00
2017-10-24T03:33:29.668Z,18.17
2017-10-24T03:35:58.137Z,16.73
2017-10-24T03:38:26.688Z,16.70
2017-10-24T03:40:55.157Z,18.07
2017-10-24T03:43:23.602Z,16.40
2017-10-24T03:45:52.129Z,16.50
2017-10-24T03:48:20.605Z,15.77
2017-10-24T03:50:49.082Z,15.23
2017-10-24T03:53:17.523Z,15.50
2017-10-24T03:55:45.994Z,16.23
2017-10-24T03:58:14.448Z,17.43
2017-10-24T04:00:42.936Z,16.53
2017-10-24T04:03:11.385Z,16.13
2017-10-24T04:05:39.829Z,14.50
2017-10-24T04:08:08.305Z,16.07
2017-10-24T04:10:36.849Z,15.10
2017-10-24T04:13:05.330Z,15.97
2017-10-24T04:15:33.770Z,15.63
2017-10-24T04:18:03.000Z,15.17
2017-10-24T04:20:31.449Z,14.70
2017-10-24T04:22:59.910Z,15.97
2017-10-24T04:25:28.352Z,15.30
2017-10-24T04:27:56.842Z,14.57
2017-10-24T04:30:25.286Z,15.87
2017-10-24T04:32:54.494Z,14.80
2017-10-24T04:35:23.729Z,15.77
2017-10-24T04:37:52.178Z,16.97
2017-10-24T04:40:21.512Z,16.00
2017-10-24T04:42:49.962Z,15.97
2017-10-24T04:45:18.420Z,16.30
2017-10-24T04:47:46.954Z,14.83
2017-10-24T04:50:15.534Z,15.10
2017-10-24T04:52:43.988Z,15.00
2017-10-24T04:55:13.137Z,15.53
2017-10-24T04:57:41.583Z,15.33
2017-10-24T05:00:10.058Z,14.50
2017-10-24T05:02:38.502Z,14.67
2017-10-24T05:05:06.981Z,11.63
2017-10-24T05:07:35.426Z,13.73
2017-10-24T05:10:03.874Z,14.27
2017-10-24T05:12:33.108Z,12.53
2017-10-24T05:15:01.686Z,12.60
2017-10-24T05:17:30.157Z,13.63
2017-10-24T05:19:58.602Z,12.47
2017-10-24T05:22:27.064Z,12.13
2017-10-24T05:24:55.510Z,12.53
2017-10-24T05:27:23.985Z,11.63
2017-10-24T05:29:52.433Z,13.00
2017-10-24T05:32:21.673Z,12.07
2017-10-24T05:34:50.166Z,13.57
2017-10-24T05:37:18.646Z,13.00
2017-10-24T05:39:47.114Z,13.87
2017-10-24T05:42:15.557Z,12.13
2017-10-24T05:44:44.804Z,12.83
2017-10-24T05:47:13.240Z,12.93
2017-10-24T05:49:42.572Z,12.80
2017-10-24T05:52:11.010Z,15.00
2017-10-24T05:54:39.478Z,14.57
2017-10-24T05:57:08.039Z,15.83
2017-10-24T05:59:36.509Z,19.90
2017-10-24T06:02:06.746Z,19.30
2017-10-24T06:04:35.191Z,18.53
2017-10-24T06:07:04.430Z,21.03
2017-10-24T06:09:32.873Z,20.83
2017-10-24T06:12:02.237Z,23.60
2017-10-24T06:14:30.677Z,24.30
2017-10-24T06:16:59.142Z,25.17
2017-10-24T06:19:28.350Z,30.00
2017-10-24T06:21:56.854Z,38.70
2017-10-24T06:24:25.326Z,30.97
2017-10-24T06:26:53.814Z,29.57
2017-10-24T06:29:22.262Z,32.60
2017-10-24T06:31:51.522Z,33.37
2017-10-24T06:34:19.975Z,32.93
2017-10-24T06:36:48.457Z,35.77
2017-10-24T06:39:16.954Z,35.50
2017-10-24T06:41:45.397Z,36.07
2017-10-24T06:44:14.634Z,40.10
2017-10-24T06:46:43.072Z,42.80
2017-10-24T06:49:12.314Z,39.57
2017-10-24T06:51:40.790Z,44.63
2017-10-24T06:54:09.253Z,41.77
2017-10-24T06:56:37.750Z,46.00
2017-10-24T06:59:06.218Z,42.03
2017-10-24T07:01:34.662Z,44.10
2017-10-24T07:04:03.134Z,43.00
2017-10-24T07:06:31.581Z,39.60
2017-10-24T07:09:00.113Z,39.80
2017-10-24T07:11:29.343Z,39.67
2017-10-24T07:13:57.845Z,36.63
2017-10-24T07:16:26.296Z,36.37
2017-10-24T07:18:55.517Z,36.13
2017-10-24T07:21:23.984Z,38.20
2017-10-24T07:23:52.425Z,40.77
2017-10-24T07:26:20.935Z,39.23
2017-10-24T07:28:50.141Z,41.13
2017-10-24T07:31:18.656Z,39.20
2017-10-24T07:33:47.135Z,47.07
2017-10-24T07:36:15.618Z,42.17
2017-10-24T07:38:44.068Z,42.57
2017-10-24T07:41:12.566Z,44.40
2017-10-24T07:43:41.013Z,37.07
2017-10-24T07:46:10.364Z,38.07
2017-10-24T07:48:38.841Z,40.30
2017-10-24T07:51:07.321Z,37.57
2017-10-24T07:53:35.769Z,41.03
2017-10-24T07:56:05.014Z,41.00
2017-10-24T07:58:33.487Z,38.93
2017-10-24T08:01:01.930Z,40.67
2017-10-24T08:03:31.201Z,42.73
2017-10-24T08:05:59.754Z,42.87
2017-10-24T08:08:28.226Z,45.37
2017-10-24T08:10:56.683Z,38.73
2017-10-24T08:13:25.921Z,41.83
2017-10-24T08:15:54.366Z,41.93
2017-10-24T08:18:23.705Z,40.77
2017-10-24T08:20:52.153Z,43.87
2017-10-24T08:23:21.386Z,40.17
2017-10-24T08:25:49.866Z,40.30
2017-10-24T08:28:18.333Z,45.27
2017-10-24T08:30:46.780Z,41.77
2017-10-24T08:33:16.132Z,37.93
2017-10-24T08:35:44.574Z,40.77
2017-10-24T08:38:13.916Z,35.87
2017-10-24T08:40:42.393Z,32.83
2017-10-24T08:43:10.874Z,34.00
2017-10-24T08:45:39.360Z,36.20
2017-10-24T08:48:07.849Z,33.10
2017-10-24T08:50:36.313Z,31.53
2017-10-24T08:53:04.756Z,29.57
2017-10-24T08:55:34.002Z,33.97
2017-10-24T08:58:03.210Z,31.07
2017-10-24T09:00:31.678Z,30.80
2017-10-24T09:03:00.134Z,28.23
2017-10-24T09:05:29.390Z,30.20
2017-10-24T09:07:57.841Z,31.57
2017-10-24T09:10:53.675Z,27.57
2017-10-24T09:16:41.455Z,24.93
2017-10-24T09:22:22.632Z,26.33
2017-10-24T09:24:51.072Z,23.67
2017-10-24T09:27:20.324Z,23.77
2017-10-24T09:29:48.774Z,23.43
2017-10-24T09:32:17.223Z,20.80
2017-10-24T09:34:46.461Z,21.50
2017-10-24T09:37:14.887Z,18.33
2017-10-24T09:39:43.354Z,18.20
2017-10-24T09:42:11.792Z,22.13
2017-10-24T09:44:40.253Z,21.43
2017-10-24T09:47:09.470Z,19.70
2017-10-24T09:49:38.706Z,20.40
2017-10-24T09:52:07.149Z,22.13
2017-10-24T09:54:42.715Z,22.30
2017-10-24T09:57:11.170Z,24.00
2017-10-24T09:59:40.510Z,21.77
2017-10-24T10:02:08.960Z,23.20
2017-10-24T10:04:38.250Z,24.80
2017-10-24T10:07:12.174Z,25.60
2017-10-24T10:09:41.405Z,26.37
2017-10-24T10:12:10.606Z,25.20
2017-10-24T10:14:39.066Z,25.33
2017-10-24T10:17:07.517Z,24.07
2017-10-24T10:19:36.757Z,27.47
2017-10-24T10:22:06.020Z,25.13
2017-10-24T10:24:39.957Z,25.33
2017-10-24T10:27:08.461Z,25.30
2017-10-24T10:29:36.925Z,25.23
2017-10-24T10:32:05.503Z,25.17
2017-10-24T10:34:33.998Z,22.70
2017-10-24T10:37:02.441Z,22.50
2017-10-24T10:39:31.649Z,23.87
2017-10-24T10:42:00.986Z,22.83
2017-10-24T10:44:29.425Z,21.73
2017-10-24T10:46:58.765Z,22.60
2017-10-24T10:49:27.250Z,23.57
2017-10-24T10:51:55.716Z,21.73
2017-10-24T10:54:24.161Z,20.83
2017-10-24T10:56:52.630Z,20.87
2017-10-24T10:59:21.073Z,19.97
2017-10-24T11:01:49.541Z,18.03
2017-10-24T11:04:18.046Z,18.07
2017-10-24T11:06:46.523Z,16.77
2017-10-24T11:09:15.006Z,18.30
2017-10-24T11:11:43.454Z,17.10
2017-10-24T11:14:12.784Z,17.03
2017-10-24T11:16:41.378Z,17.00
2017-10-24T11:19:09.850Z,16.50
2017-10-24T11:21:38.301Z,16.37
2017-10-24T11:24:07.644Z,14.97
2017-10-24T11:26:36.098Z,14.23
2017-10-24T11:29:04.570Z,13.80
2017-10-24T11:31:33.782Z,15.03
2017-10-24T11:34:02.251Z,13.50
2017-10-24T11:36:31.462Z,11.50
2017-10-24T11:38:59.906Z,11.33
2017-10-24T11:41:28.375Z,9.93
2017-10-24T11:43:56.925Z,12.57
2017-10-24T11:46:25.391Z,14.33
2017-10-24T11:48:53.828Z,11.60
2017-10-24T11:51:22.310Z,12.47
2017-10-24T11:53:50.754Z,11.00
2017-10-24T11:56:19.242Z,12.20
2017-10-24T11:58:47.898Z,12.50
2017-10-24T12:01:17.158Z,11.50
2017-10-24T12:03:45.714Z,12.10
2017-10-24T12:06:14.157Z,13.67
2017-10-24T12:08:43.498Z,12.40
2017-10-24T12:11:11.986Z,12.30
2017-10-24T12:13:40.615Z,11.07
2017-10-24T12:16:09.833Z,11.80
2017-10-24T12:18:39.164Z,12.77
2017-10-24T12:21:07.643Z,11.77
2017-10-24T12:23:36.181Z,12.10
2017-10-24T12:26:04.650Z,10.47
2017-10-24T12:28:33.249Z,11.93
2017-10-24T12:31:02.533Z,10.30
2017-10-24T12:33:30.997Z,10.73
2017-10-24T12:35:59.471Z,11.30
2017-10-24T12:38:27.953Z,10.77
2017-10-24T12:40:56.393Z,12.60
2017-10-24T12:43:25.658Z,11.27
2017-10-24T12:49:04.670Z,9.60
2017-10-24T12:51:34.110Z,9.23
2017-10-24T12:54:02.889Z,10.03
2017-10-24T12:56:31.339Z,12.53
2017-10-24T12:58:59.809Z,10.00
2017-10-24T13:01:28.346Z,9.93
2017-10-24T13:03:56.805Z,10.27
2017-10-24T13:06:25.253Z,9.40
2017-10-24T13:08:53.836Z,9.40
2017-10-24T13:11:22.447Z,9.80
2017-10-24T13:13:50.915Z,8.93
2017-10-24T13:16:19.377Z,9.17
2017-10-24T13:18:48.585Z,10.07
2017-10-24T13:21:17.096Z,10.50
2017-10-24T13:23:45.781Z,8.83
2017-10-24T13:26:14.249Z,8.63
2017-10-24T13:28:42.680Z,8.70
2017-10-24T13:31:11.185Z,9.43
2017-10-24T13:33:40.412Z,10.30
2017-10-24T13:36:08.876Z,10.17
2017-10-24T13:38:38.226Z,10.63
2017-10-24T13:41:06.689Z,9.90
2017-10-24T13:43:35.165Z,10.17
2017-10-24T13:46:03.941Z,9.70
2017-10-24T13:48:32.433Z,10.23
2017-10-24T13:51:00.893Z,10.83
2017-10-24T13:53:30.101Z,10.23
2017-10-24T13:55:58.597Z,10.37
2017-10-24T13:58:27.077Z,8.53
2017-10-24T14:00:55.566Z,10.77
2017-10-24T14:03:24.039Z,8.40
2017-10-24T14:05:58.104Z,8.90
2017-10-24T14:08:32.414Z,9.40
2017-10-24T14:11:00.881Z,8.97
2017-10-24T14:13:30.018Z,8.50
2017-10-24T14:15:59.230Z,9.33
2017-10-24T14:18:28.462Z,9.97
2017-10-24T14:20:56.902Z,10.70
2017-10-24T14:23:26.242Z,9.30
2017-10-24T14:25:54.727Z,10.60
2017-10-24T14:28:23.311Z,11.27
2017-10-24T14:30:51.762Z,10.73
2017-10-24T14:33:20.233Z,10.10
2017-10-24T14:35:49.465Z,9.73
2017-10-24T14:38:18.054Z,10.93
2017-10-24T14:40:46.497Z,10.63
2017-10-24T14:43:15.739Z,9.23
2017-10-24T14:45:44.203Z,9.53
2017-10-24T14:48:12.633Z,9.77
2017-10-24T14:50:41.176Z,10.60
2017-10-24T14:53:09.662Z,16.13
2017-10-24T14:55:38.134Z,11.93
2017-10-24T14:58:06.627Z,11.13
2017-10-24T15:00:35.125Z,10.90
2017-10-24T15:03:03.591Z,12.33
2017-10-24T15:05:32.065Z,12.07
2017-10-24T15:08:00.550Z,11.40
2017-10-24T15:10:29.029Z,11.47
2017-10-24T15:12:57.474Z,13.10
2017-10-24T15:15:26.725Z,11.83
2017-10-24T15:17:55.165Z,10.50
2017-10-24T15:20:24.404Z,12.67
2017-10-24T15:22:52.982Z,10.47
2017-10-24T15:25:21.430Z,11.90
2017-10-24T15:27:50.670Z,11.63
2017-10-24T15:30:19.109Z,11.97
2017-10-24T15:32:48.336Z,10.70
2017-10-24T15:35:16.782Z,11.00
2017-10-24T15:37:46.017Z,10.93
2017-10-24T15:40:14.462Z,12.70
2017-10-24T15:42:43.707Z,11.37
2017-10-24T15:45:12.185Z,12.17
2017-10-24T15:47:40.645Z,12.20
2017-10-24T15:50:09.875Z,11.33
2017-10-24T15:52:38.337Z,12.23
2017-10-24T15:55:06.833Z,12.43
2017-10-24T15:57:35.316Z,11.03
2017-10-24T16:00:03.762Z,11.83
2017-10-24T16:02:32.989Z,11.23
2017-10-24T16:05:01.457Z,11.40
2017-10-24T16:07:29.966Z,15.53
2017-10-24T16:09:58.437Z,11.67
2017-10-24T16:12:26.893Z,14.33
2017-10-24T16:14:56.130Z,12.50
2017-10-24T16:17:24.577Z,11.00
2017-10-24T16:19:53.045Z,12.13
2017-10-24T16:22:22.266Z,12.33
2017-10-24T16:24:50.728Z,13.93
2017-10-24T16:27:19.938Z,13.47
2017-10-24T16:29:49.284Z,13.23
2017-10-24T16:32:17.758Z,13.40
2017-10-24T16:34:46.335Z,12.70
2017-10-24T16:37:14.823Z,11.10
2017-10-24T16:39:43.709Z,14.40
2017-10-24T16:42:12.191Z,13.83
2017-10-24T16:44:40.668Z,14.63
2017-10-24T16:47:09.118Z,13.90
2017-10-24T16:49:38.357Z,15.17
2017-10-24T16:52:06.801Z,15.73
2017-10-24T16:54:36.058Z,15.13
2017-10-24T16:57:04.497Z,14.53
2017-10-24T16:59:32.934Z,14.70
2017-10-24T17:02:01.392Z,13.70
2017-10-24T17:04:29.856Z,17.07
2017-10-24T17:06:58.330Z,14.30
2017-10-24T17:09:26.827Z,14.67
2017-10-24T17:11:55.297Z,14.80
2017-10-24T17:14:23.789Z,15.67
2017-10-24T17:16:52.258Z,15.37
2017-10-24T17:19:20.697Z,15.00
2017-10-24T17:21:49.157Z,13.87
2017-10-24T17:24:17.601Z,13.93
2017-10-24T17:26:46.070Z,15.73
2017-10-24T17:29:15.277Z,15.27
2017-10-24T17:31:43.784Z,16.37
2017-10-24T17:34:12.229Z,15.47
2017-10-24T17:36:41.542Z,14.60
2017-10-24T17:39:09.982Z,16.67
2017-10-24T17:41:38.424Z,15.93
2017-10-24T17:44:06.909Z,15.80
2017-10-24T17:46:35.348Z,16.03
2017-10-24T17:49:04.692Z,17.27
2017-10-24T17:51:33.179Z,16.80
2017-10-24T17:54:01.651Z,14.70
2017-10-24T17:56:30.140Z,17.13
2017-10-24T17:58:58.717Z,14.40
2017-10-24T18:01:27.162Z,15.80
2017-10-24T18:03:56.393Z,18.33
2017-10-24T18:06:24.843Z,17.53
2017-10-24T18:08:54.068Z,17.77
2017-10-24T18:11:22.662Z,18.20
2017-10-24T18:13:51.122Z,18.93
2017-10-24T18:16:20.335Z,17.53
2017-10-24T18:18:48.803Z,19.37
2017-10-24T18:21:18.014Z,17.67
2017-10-24T18:23:46.478Z,19.27
2017-10-24T18:26:15.818Z,19.80
2017-10-24T18:28:44.294Z,20.17
2017-10-24T18:31:12.762Z,21.73
2017-10-24T18:33:41.261Z,20.70
2017-10-24T18:36:09.726Z,21.30
2017-10-24T18:38:38.278Z,19.63
2017-10-24T18:41:08.083Z,19.50
2017-10-24T18:43:36.522Z,19.83
2017-10-24T18:46:04.985Z,20.23
2017-10-24T18:48:33.426Z,18.50
2017-10-24T18:51:01.902Z,19.63
2017-10-24T18:53:30.342Z,22.20
2017-10-24T18:55:58.830Z,21.20
2017-10-24T18:58:27.273Z,21.30
2017-10-24T19:00:56.506Z,21.90
2017-10-24T19:03:24.942Z,22.40
2017-10-24T19:05:54.422Z,22.97
2017-10-24T19:08:22.881Z,21.80
2017-10-24T19:10:51.341Z,22.17
2017-10-24T19:13:19.777Z,23.40
2017-10-24T19:15:48.256Z,23.50
2017-10-24T19:18:16.917Z,24.10
2017-10-24T19:20:45.361Z,22.83
2017-10-24T19:23:13.821Z,24.30
2017-10-24T19:25:43.071Z,23.90
2017-10-24T19:28:11.543Z,23.57
2017-10-24T19:30:39.994Z,22.40
2017-10-24T19:33:09.274Z,22.67
2017-10-24T19:35:37.725Z,22.10
2017-10-24T19:38:06.198Z,22.60
2017-10-24T19:40:34.680Z,22.53
2017-10-24T19:43:03.155Z,24.00
2017-10-24T19:45:31.596Z,24.57
2017-10-24T19:48:00.946Z,25.07
2017-10-24T19:50:29.391Z,27.20
2017-10-24T19:52:58.621Z,25.60
2017-10-24T19:55:27.057Z,26.90
2017-10-24T19:57:56.368Z,25.40
2017-10-24T20:00:24.934Z,24.60
2017-10-24T20:02:53.378Z,24.80
2017-10-24T20:05:21.858Z,25.23
2017-10-24T20:07:50.298Z,26.50
2017-10-24T20:10:19.534Z,24.73
2017-10-24T20:12:48.413Z,25.90
2017-10-24T20:15:16.906Z,23.90
2017-10-24T20:17:45.349Z,23.60
2017-10-24T20:20:14.581Z,27.17
2017-10-24T20:22:43.021Z,23.17
2017-10-24T20:25:12.249Z,24.27
2017-10-24T20:27:40.689Z,23.43
2017-10-24T20:30:09.157Z,25.70
2017-10-24T20:32:37.593Z,22.63
2017-10-24T20:35:06.099Z,23.80
2017-10-24T20:37:34.537Z,24.67
2017-10-24T20:40:03.779Z,22.23
2017-10-24T20:42:32.241Z,24.83
2017-10-24T20:45:00.750Z,23.07
2017-10-24T20:47:29.331Z,23.17
2017-10-24T20:49:57.768Z,21.13
2017-10-24T20:52:27.105Z,21.77
2017-10-24T20:54:55.545Z,23.37
2017-10-24T20:57:24.769Z,22.27
2017-10-24T20:59:53.214Z,20.20
2017-10-24T21:02:21.677Z,18.97
2017-10-24T21:04:50.117Z,20.57
2017-10-24T21:07:18.618Z,19.30
2017-10-24T21:09:47.099Z,19.10
2017-10-24T21:12:15.653Z,20.17
2017-10-24T21:14:44.853Z,17.83
2017-10-24T21:17:13.357Z,18.40
2017-10-24T21:19:41.806Z,20.60
2017-10-24T21:22:11.038Z,19.23
2017-10-24T21:24:39.528Z,16.17
2017-10-24T21:27:07.974Z,15.40
2017-10-24T21:29:37.306Z,14.50
2017-10-24T21:32:05.795Z,14.77
2017-10-24T21:34:34.370Z,13.90
2017-10-24T21:37:02.859Z,11.87
2017-10-24T21:39:31.316Z,13.77
2017-10-24T21:41:59.762Z,13.80
2017-10-24T21:44:28.233Z,14.47
2017-10-24T21:46:56.783Z,11.63
2017-10-24T21:49:25.253Z,13.47
2017-10-24T21:51:53.751Z,12.70
2017-10-24T21:54:22.215Z,13.00
2017-10-24T21:56:50.715Z,13.07
2017-10-24T21:59:19.300Z,13.30
2017-10-24T22:01:47.774Z,13.17
2017-10-24T22:04:16.234Z,11.70
2017-10-24T22:06:44.710Z,12.60
2017-10-24T22:09:13.920Z,11.60
2017-10-24T22:11:42.530Z,10.13
2017-10-24T22:14:10.977Z,11.20
2017-10-24T22:16:40.210Z,12.00
2017-10-24T22:19:08.649Z,12.63
2017-10-24T22:21:37.881Z,13.47
2017-10-24T22:24:06.326Z,12.20
2017-10-24T22:26:35.563Z,13.77
2017-10-24T22:29:04.018Z,13.17
2017-10-24T22:31:33.245Z,13.67
2017-10-24T22:34:01.730Z,13.83
2017-10-24T22:36:30.201Z,13.17
2017-10-24T22:38:58.703Z,11.80
2017-10-24T22:41:27.177Z,13.53
2017-10-24T22:43:55.617Z,15.13
2017-10-24T22:46:24.965Z,13.47
2017-10-24T22:48:53.446Z,13.30
2017-10-24T22:51:21.912Z,14.83
2017-10-24T22:53:50.410Z,11.93
2017-10-24T22:56:18.856Z,13.27
2017-10-24T22:58:48.195Z,15.87
2017-10-24T23:01:16.774Z,13.97
2017-10-24T23:03:45.237Z,15.10
2017-10-24T23:06:13.738Z,13.53
2017-10-24T23:08:42.219Z,14.70
2017-10-24T23:11:10.665Z,13.60
2017-10-24T23:13:39.993Z,14.83
2017-10-24T23:16:08.438Z,14.83
2017-10-24T23:18:37.785Z,13.93
2017-10-24T23:21:06.267Z,12.57
2017-10-24T23:23:34.725Z,12.17
2017-10-24T23:26:03.944Z,12.80
2017-10-24T23:28:32.421Z,12.10
2017-10-24T23:31:00.871Z,12.40
2017-10-24T23:33:30.105Z,13.80
2017-10-24T23:35:58.550Z,11.57
2017-10-24T23:38:27.871Z,12.97
2017-10-24T23:40:56.379Z,11.90
2017-10-24T23:43:24.841Z,11.87
2017-10-24T23:45:53.287Z,10.30
2017-10-24T23:48:21.823Z,9.80
2017-10-24T23:50:50.274Z,10.63
2017-10-24T23:53:19.485Z,9.70
2017-10-24T23:55:47.954Z,9.83
2017-10-24T23:58:17.157Z,8.60
